sensor_id;sensor_type;location;lat;lon;timestamp;P1;durP1;ratioP1;P2;durP2;ratioP2
13202;SDS011;6666;51.626;7.530;2022-11-12T00:02:39;15.18;;;8.80;;
13202;SDS011;6666;51.626;7.530;2022-11-12T00:05:25;13.50;;;7.68;;
13202;SDS011;6666;51.626;7.530;2022-11-12T00:08:12;14.88;;;8.57;;
13202;SDS011;6666;51.626;7.530;2022-11-12T00:10:59;17.25;;;8.50;;
13202;SDS011;6666;51.626;7.530;2022-11-12T00:13:47;18.23;;;7.47;;
13202;SDS011;6666;51.626;7.530;2022-11-12T00:16:34;19.07;;;7.80;;
13202;SDS011;6666;51.626;7.530;2022-11-12T00:19:20;15.10;;;7.70;;
13202;SDS011;6666;51.626;7.530;2022-11-12T00:22:07;20.15;;;7.70;;
13202;SDS011;6666;51.626;7.530;2022-11-12T00:24:53;18.90;;;8.02;;
13202;SDS011;6666;51.626;7.530;2022-11-12T00:27:40;18.40;;;7.60;;
13202;SDS011;6666;51.626;7.530;2022-11-12T00:30:28;14.20;;;6.95;;
13202;SDS011;6666;51.626;7.530;2022-11-12T00:33:15;10.95;;;5.53;;
13202;SDS011;6666;51.626;7.530;2022-11-12T00:36:01;15.80;;;6.45;;
13202;SDS011;6666;51.626;7.530;2022-11-12T00:38:48;14.70;;;6.80;;
13202;SDS011;6666;51.626;7.530;2022-11-12T00:41:35;12.82;;;6.10;;
13202;SDS011;6666;51.626;7.530;2022-11-12T00:44:21;16.77;;;6.40;;
13202;SDS011;6666;51.626;7.530;2022-11-12T00:47:09;17.63;;;5.72;;
13202;SDS011;6666;51.626;7.530;2022-11-12T00:49:56;11.40;;;5.65;;
13202;SDS011;6666;51.626;7.530;2022-11-12T00:52:43;9.40;;;5.00;;
13202;SDS011;6666;51.626;7.530;2022-11-12T00:55:29;8.70;;;5.07;;
13202;SDS011;6666;51.626;7.530;2022-11-12T00:58:16;12.68;;;5.68;;
13202;SDS011;6666;51.626;7.530;2022-11-12T01:01:04;8.00;;;5.22;;
13202;SDS011;6666;51.626;7.530;2022-11-12T01:03:55;10.30;;;5.00;;
13202;SDS011;6666;51.626;7.530;2022-11-12T01:06:43;15.88;;;4.90;;
13202;SDS011;6666;51.626;7.530;2022-11-12T01:09:30;10.47;;;5.00;;
13202;SDS011;6666;51.626;7.530;2022-11-12T01:12:16;10.10;;;5.10;;
13202;SDS011;6666;51.626;7.530;2022-11-12T01:15:03;8.38;;;4.95;;
13202;SDS011;6666;51.626;7.530;2022-11-12T01:17:51;12.00;;;4.90;;
13202;SDS011;6666;51.626;7.530;2022-11-12T01:20:39;12.52;;;5.03;;
13202;SDS011;6666;51.626;7.530;2022-11-12T01:23:26;8.67;;;4.90;;
13202;SDS011;6666;51.626;7.530;2022-11-12T01:26:15;9.70;;;4.93;;
13202;SDS011;6666;51.626;7.530;2022-11-12T01:29:03;10.65;;;4.57;;
13202;SDS011;6666;51.626;7.530;2022-11-12T01:31:50;8.00;;;4.72;;
13202;SDS011;6666;51.626;7.530;2022-11-12T01:34:37;8.20;;;4.07;;
13202;SDS011;6666;51.626;7.530;2022-11-12T01:37:26;5.80;;;4.10;;
13202;SDS011;6666;51.626;7.530;2022-11-12T01:40:13;6.95;;;3.80;;
13202;SDS011;6666;51.626;7.530;2022-11-12T01:43:00;7.22;;;3.65;;
13202;SDS011;6666;51.626;7.530;2022-11-12T01:45:48;6.65;;;4.07;;
13202;SDS011;6666;51.626;7.530;2022-11-12T01:48:37;6.55;;;3.40;;
13202;SDS011;6666;51.626;7.530;2022-11-12T01:51:31;6.20;;;3.50;;
13202;SDS011;6666;51.626;7.530;2022-11-12T01:54:24;5.70;;;3.22;;
13202;SDS011;6666;51.626;7.530;2022-11-12T01:57:11;3.58;;;2.80;;
13202;SDS011;6666;51.626;7.530;2022-11-12T01:59:59;5.28;;;3.30;;
13202;SDS011;6666;51.626;7.530;2022-11-12T02:02:51;5.22;;;2.80;;
13202;SDS011;6666;51.626;7.530;2022-11-12T02:05:40;4.63;;;3.10;;
13202;SDS011;6666;51.626;7.530;2022-11-12T02:08:27;6.05;;;3.47;;
13202;SDS011;6666;51.626;7.530;2022-11-12T02:11:18;7.60;;;3.00;;
13202;SDS011;6666;51.626;7.530;2022-11-12T02:14:06;4.63;;;3.03;;
13202;SDS011;6666;51.626;7.530;2022-11-12T02:16:52;4.68;;;2.90;;
13202;SDS011;6666;51.626;7.530;2022-11-12T02:19:39;5.85;;;3.70;;
13202;SDS011;6666;51.626;7.530;2022-11-12T02:22:27;8.13;;;3.70;;
13202;SDS011;6666;51.626;7.530;2022-11-12T02:25:16;6.90;;;3.40;;
13202;SDS011;6666;51.626;7.530;2022-11-12T02:28:05;5.43;;;3.20;;
13202;SDS011;6666;51.626;7.530;2022-11-12T02:30:53;5.50;;;3.40;;
13202;SDS011;6666;51.626;7.530;2022-11-12T02:33:39;6.43;;;3.80;;
13202;SDS011;6666;51.626;7.530;2022-11-12T02:36:26;7.75;;;3.38;;
13202;SDS011;6666;51.626;7.530;2022-11-12T02:39:15;6.07;;;3.70;;
13202;SDS011;6666;51.626;7.530;2022-11-12T02:42:02;5.95;;;3.80;;
13202;SDS011;6666;51.626;7.530;2022-11-12T02:44:50;6.50;;;4.10;;
13202;SDS011;6666;51.626;7.530;2022-11-12T02:47:37;6.72;;;3.88;;
13202;SDS011;6666;51.626;7.530;2022-11-12T02:50:24;7.60;;;3.70;;
13202;SDS011;6666;51.626;7.530;2022-11-12T02:53:11;7.45;;;4.18;;
13202;SDS011;6666;51.626;7.530;2022-11-12T02:56:00;6.90;;;4.07;;
13202;SDS011;6666;51.626;7.530;2022-11-12T02:58:47;7.53;;;4.33;;
13202;SDS011;6666;51.626;7.530;2022-11-12T03:01:34;7.30;;;4.50;;
13202;SDS011;6666;51.626;7.530;2022-11-12T03:04:21;8.40;;;4.10;;
13202;SDS011;6666;51.626;7.530;2022-11-12T03:07:08;8.05;;;4.20;;
13202;SDS011;6666;51.626;7.530;2022-11-12T03:09:54;8.50;;;4.70;;
13202;SDS011;6666;51.626;7.530;2022-11-12T03:12:43;7.75;;;4.60;;
13202;SDS011;6666;51.626;7.530;2022-11-12T03:15:29;8.00;;;3.90;;
13202;SDS011;6666;51.626;7.530;2022-11-12T03:18:16;6.10;;;4.10;;
13202;SDS011;6666;51.626;7.530;2022-11-12T03:21:03;5.68;;;3.80;;
13202;SDS011;6666;51.626;7.530;2022-11-12T03:23:50;5.40;;;3.53;;
13202;SDS011;6666;51.626;7.530;2022-11-12T03:26:37;5.93;;;4.10;;
13202;SDS011;6666;51.626;7.530;2022-11-12T03:29:24;6.60;;;3.70;;
13202;SDS011;6666;51.626;7.530;2022-11-12T03:32:11;6.95;;;3.83;;
13202;SDS011;6666;51.626;7.530;2022-11-12T03:34:58;8.05;;;4.50;;
13202;SDS011;6666;51.626;7.530;2022-11-12T03:37:44;6.75;;;4.20;;
13202;SDS011;6666;51.626;7.530;2022-11-12T03:40:31;12.65;;;4.28;;
13202;SDS011;6666;51.626;7.530;2022-11-12T03:43:18;9.45;;;4.70;;
13202;SDS011;6666;51.626;7.530;2022-11-12T03:46:06;7.60;;;4.30;;
13202;SDS011;6666;51.626;7.530;2022-11-12T03:48:53;6.25;;;4.20;;
13202;SDS011;6666;51.626;7.530;2022-11-12T03:51:40;6.57;;;4.50;;
13202;SDS011;6666;51.626;7.530;2022-11-12T03:54:26;7.22;;;4.45;;
13202;SDS011;6666;51.626;7.530;2022-11-12T03:57:13;8.88;;;4.68;;
13202;SDS011;6666;51.626;7.530;2022-11-12T03:59:59;7.00;;;4.10;;
13202;SDS011;6666;51.626;7.530;2022-11-12T04:02:47;6.88;;;4.10;;
13202;SDS011;6666;51.626;7.530;2022-11-12T04:05:34;10.40;;;4.40;;
13202;SDS011;6666;51.626;7.530;2022-11-12T04:08:38;7.57;;;4.20;;
13202;SDS011;6666;51.626;7.530;2022-11-12T04:11:25;6.25;;;3.95;;
13202;SDS011;6666;51.626;7.530;2022-11-12T04:14:12;8.93;;;4.22;;
13202;SDS011;6666;51.626;7.530;2022-11-12T04:16:58;6.00;;;3.93;;
13202;SDS011;6666;51.626;7.530;2022-11-12T04:20:05;10.18;;;4.03;;
13202;SDS011;6666;51.626;7.530;2022-11-12T04:23:11;6.40;;;3.93;;
13202;SDS011;6666;51.626;7.530;2022-11-12T04:25:57;6.70;;;3.70;;
13202;SDS011;6666;51.626;7.530;2022-11-12T04:29:02;4.78;;;3.53;;
13202;SDS011;6666;51.626;7.530;2022-11-12T04:32:06;5.55;;;3.60;;
13202;SDS011;6666;51.626;7.530;2022-11-12T04:34:53;5.50;;;3.40;;
13202;SDS011;6666;51.626;7.530;2022-11-12T04:37:42;5.68;;;3.80;;
13202;SDS011;6666;51.626;7.530;2022-11-12T04:40:31;8.00;;;3.40;;
13202;SDS011;6666;51.626;7.530;2022-11-12T04:43:35;6.72;;;3.40;;
13202;SDS011;6666;51.626;7.530;2022-11-12T04:46:39;6.28;;;3.80;;
13202;SDS011;6666;51.626;7.530;2022-11-12T04:49:26;6.43;;;3.60;;
13202;SDS011;6666;51.626;7.530;2022-11-12T04:52:13;4.20;;;3.20;;
13202;SDS011;6666;51.626;7.530;2022-11-12T04:55:01;4.90;;;3.50;;
13202;SDS011;6666;51.626;7.530;2022-11-12T04:57:47;4.07;;;2.88;;
13202;SDS011;6666;51.626;7.530;2022-11-12T05:00:36;5.63;;;3.33;;
13202;SDS011;6666;51.626;7.530;2022-11-12T05:03:24;7.30;;;3.10;;
13202;SDS011;6666;51.626;7.530;2022-11-12T05:06:10;5.83;;;3.13;;
13202;SDS011;6666;51.626;7.530;2022-11-12T05:09:11;4.20;;;3.30;;
13202;SDS011;6666;51.626;7.530;2022-11-12T05:11:59;6.78;;;3.28;;
13202;SDS011;6666;51.626;7.530;2022-11-12T05:14:46;7.90;;;4.10;;
13202;SDS011;6666;51.626;7.530;2022-11-12T05:17:32;4.43;;;3.30;;
13202;SDS011;6666;51.626;7.530;2022-11-12T05:20:19;5.00;;;3.60;;
13202;SDS011;6666;51.626;7.530;2022-11-12T05:23:07;5.57;;;3.57;;
13202;SDS011;6666;51.626;7.530;2022-11-12T05:25:54;7.67;;;3.73;;
13202;SDS011;6666;51.626;7.530;2022-11-12T05:28:42;8.35;;;4.05;;
13202;SDS011;6666;51.626;7.530;2022-11-12T05:31:29;6.50;;;3.10;;
13202;SDS011;6666;51.626;7.530;2022-11-12T05:34:16;7.30;;;3.80;;
13202;SDS011;6666;51.626;7.530;2022-11-12T05:37:07;5.60;;;3.80;;
13202;SDS011;6666;51.626;7.530;2022-11-12T05:39:56;6.90;;;3.70;;
13202;SDS011;6666;51.626;7.530;2022-11-12T05:42:43;8.52;;;4.80;;
13202;SDS011;6666;51.626;7.530;2022-11-12T05:45:31;6.07;;;3.92;;
13202;SDS011;6666;51.626;7.530;2022-11-12T05:48:18;7.43;;;3.60;;
13202;SDS011;6666;51.626;7.530;2022-11-12T05:51:08;8.02;;;4.40;;
13202;SDS011;6666;51.626;7.530;2022-11-12T05:53:58;6.68;;;4.25;;
13202;SDS011;6666;51.626;7.530;2022-11-12T05:56:45;6.03;;;4.18;;
13202;SDS011;6666;51.626;7.530;2022-11-12T05:59:31;6.00;;;3.50;;
13202;SDS011;6666;51.626;7.530;2022-11-12T06:02:20;6.05;;;4.28;;
13202;SDS011;6666;51.626;7.530;2022-11-12T06:05:07;6.13;;;4.00;;
13202;SDS011;6666;51.626;7.530;2022-11-12T06:07:54;6.73;;;4.03;;
13202;SDS011;6666;51.626;7.530;2022-11-12T06:10:41;6.32;;;4.40;;
13202;SDS011;6666;51.626;7.530;2022-11-12T06:13:32;10.10;;;4.40;;
13202;SDS011;6666;51.626;7.530;2022-11-12T06:16:18;6.68;;;4.20;;
13202;SDS011;6666;51.626;7.530;2022-11-12T06:19:07;8.40;;;3.90;;
13202;SDS011;6666;51.626;7.530;2022-11-12T06:21:53;5.80;;;4.05;;
13202;SDS011;6666;51.626;7.530;2022-11-12T06:24:40;7.90;;;4.40;;
13202;SDS011;6666;51.626;7.530;2022-11-12T06:27:27;9.80;;;4.70;;
13202;SDS011;6666;51.626;7.530;2022-11-12T06:30:13;6.57;;;4.57;;
13202;SDS011;6666;51.626;7.530;2022-11-12T06:33:00;6.32;;;4.32;;
13202;SDS011;6666;51.626;7.530;2022-11-12T06:35:54;7.13;;;4.50;;
13202;SDS011;6666;51.626;7.530;2022-11-12T06:38:42;8.23;;;4.97;;
13202;SDS011;6666;51.626;7.530;2022-11-12T06:41:29;9.43;;;5.25;;
13202;SDS011;6666;51.626;7.530;2022-11-12T06:44:16;8.60;;;5.55;;
13202;SDS011;6666;51.626;7.530;2022-11-12T06:47:07;7.43;;;4.65;;
13202;SDS011;6666;51.626;7.530;2022-11-12T06:49:55;7.77;;;4.90;;
13202;SDS011;6666;51.626;7.530;2022-11-12T06:52:43;7.22;;;4.60;;
13202;SDS011;6666;51.626;7.530;2022-11-12T06:55:30;8.73;;;4.38;;
13202;SDS011;6666;51.626;7.530;2022-11-12T06:58:16;7.47;;;4.97;;
13202;SDS011;6666;51.626;7.530;2022-11-12T07:01:05;13.07;;;5.00;;
13202;SDS011;6666;51.626;7.530;2022-11-12T07:03:56;7.20;;;4.57;;
13202;SDS011;6666;51.626;7.530;2022-11-12T07:06:43;6.83;;;4.80;;
13202;SDS011;6666;51.626;7.530;2022-11-12T07:09:31;8.10;;;5.07;;
13202;SDS011;6666;51.626;7.530;2022-11-12T07:12:18;12.30;;;5.30;;
13202;SDS011;6666;51.626;7.530;2022-11-12T07:15:05;8.20;;;5.45;;
13202;SDS011;6666;51.626;7.530;2022-11-12T07:17:52;7.43;;;5.17;;
13202;SDS011;6666;51.626;7.530;2022-11-12T07:20:38;9.73;;;6.13;;
13202;SDS011;6666;51.626;7.530;2022-11-12T07:23:25;8.30;;;5.43;;
13202;SDS011;6666;51.626;7.530;2022-11-12T07:26:14;7.28;;;4.53;;
13202;SDS011;6666;51.626;7.530;2022-11-12T07:29:03;6.22;;;4.70;;
13202;SDS011;6666;51.626;7.530;2022-11-12T07:31:51;6.28;;;4.30;;
13202;SDS011;6666;51.626;7.530;2022-11-12T07:34:38;8.60;;;4.53;;
13202;SDS011;6666;51.626;7.530;2022-11-12T07:37:24;9.55;;;5.10;;
13202;SDS011;6666;51.626;7.530;2022-11-12T07:40:11;8.60;;;4.60;;
13202;SDS011;6666;51.626;7.530;2022-11-12T07:43:00;8.20;;;4.20;;
13202;SDS011;6666;51.626;7.530;2022-11-12T07:45:47;8.63;;;4.28;;
13202;SDS011;6666;51.626;7.530;2022-11-12T07:48:34;5.18;;;4.20;;
13202;SDS011;6666;51.626;7.530;2022-11-12T07:51:21;6.45;;;4.70;;
13202;SDS011;6666;51.626;7.530;2022-11-12T07:54:09;7.15;;;4.47;;
13202;SDS011;6666;51.626;7.530;2022-11-12T07:56:57;7.50;;;4.40;;
13202;SDS011;6666;51.626;7.530;2022-11-12T07:59:45;9.68;;;5.13;;
13202;SDS011;6666;51.626;7.530;2022-11-12T08:02:31;10.05;;;4.95;;
13202;SDS011;6666;51.626;7.530;2022-11-12T08:05:18;9.18;;;5.10;;
13202;SDS011;6666;51.626;7.530;2022-11-12T08:08:05;9.00;;;4.70;;
13202;SDS011;6666;51.626;7.530;2022-11-12T08:10:53;8.68;;;5.28;;
13202;SDS011;6666;51.626;7.530;2022-11-12T08:13:41;17.50;;;6.72;;
13202;SDS011;6666;51.626;7.530;2022-11-12T08:16:29;11.82;;;5.20;;
13202;SDS011;6666;51.626;7.530;2022-11-12T08:19:16;9.40;;;4.43;;
13202;SDS011;6666;51.626;7.530;2022-11-12T08:22:03;11.07;;;5.55;;
13202;SDS011;6666;51.626;7.530;2022-11-12T08:24:50;10.88;;;6.00;;
13202;SDS011;6666;51.626;7.530;2022-11-12T08:27:36;8.23;;;5.10;;
13202;SDS011;6666;51.626;7.530;2022-11-12T08:30:23;8.00;;;4.65;;
13202;SDS011;6666;51.626;7.530;2022-11-12T08:33:12;8.60;;;5.40;;
13202;SDS011;6666;51.626;7.530;2022-11-12T08:36:01;8.77;;;5.50;;
13202;SDS011;6666;51.626;7.530;2022-11-12T08:38:50;9.02;;;5.50;;
13202;SDS011;6666;51.626;7.530;2022-11-12T08:41:37;12.07;;;5.60;;
13202;SDS011;6666;51.626;7.530;2022-11-12T08:44:24;9.50;;;5.40;;
13202;SDS011;6666;51.626;7.530;2022-11-12T08:47:11;8.55;;;5.18;;
13202;SDS011;6666;51.626;7.530;2022-11-12T08:49:59;7.40;;;5.13;;
13202;SDS011;6666;51.626;7.530;2022-11-12T08:52:46;10.23;;;4.97;;
13202;SDS011;6666;51.626;7.530;2022-11-12T08:55:32;7.75;;;4.80;;
13202;SDS011;6666;51.626;7.530;2022-11-12T08:58:20;6.90;;;4.93;;
13202;SDS011;6666;51.626;7.530;2022-11-12T09:01:07;7.45;;;4.80;;
13202;SDS011;6666;51.626;7.530;2022-11-12T09:03:55;6.82;;;5.03;;
13202;SDS011;6666;51.626;7.530;2022-11-12T09:06:43;8.23;;;4.60;;
13202;SDS011;6666;51.626;7.530;2022-11-12T09:09:37;8.50;;;5.15;;
13202;SDS011;6666;51.626;7.530;2022-11-12T09:12:24;8.00;;;5.00;;
13202;SDS011;6666;51.626;7.530;2022-11-12T09:15:10;7.63;;;4.70;;
13202;SDS011;6666;51.626;7.530;2022-11-12T09:18:17;5.43;;;3.90;;
13202;SDS011;6666;51.626;7.530;2022-11-12T09:21:04;7.93;;;4.50;;
13202;SDS011;6666;51.626;7.530;2022-11-12T09:23:54;6.63;;;4.50;;
13202;SDS011;6666;51.626;7.530;2022-11-12T09:26:41;6.70;;;4.43;;
13202;SDS011;6666;51.626;7.530;2022-11-12T09:29:28;6.18;;;4.38;;
13202;SDS011;6666;51.626;7.530;2022-11-12T09:32:15;7.53;;;4.93;;
13202;SDS011;6666;51.626;7.530;2022-11-12T09:35:02;6.88;;;4.70;;
13202;SDS011;6666;51.626;7.530;2022-11-12T09:37:49;9.88;;;5.40;;
13202;SDS011;6666;51.626;7.530;2022-11-12T09:40:43;11.35;;;5.60;;
13202;SDS011;6666;51.626;7.530;2022-11-12T09:43:41;9.93;;;5.20;;
13202;SDS011;6666;51.626;7.530;2022-11-12T09:46:38;7.00;;;4.90;;
13202;SDS011;6666;51.626;7.530;2022-11-12T09:49:28;8.55;;;5.00;;
13202;SDS011;6666;51.626;7.530;2022-11-12T09:52:20;9.15;;;5.40;;
13202;SDS011;6666;51.626;7.530;2022-11-12T09:55:12;8.02;;;5.35;;
13202;SDS011;6666;51.626;7.530;2022-11-12T09:58:10;10.18;;;5.35;;
13202;SDS011;6666;51.626;7.530;2022-11-12T10:01:00;10.85;;;5.20;;
13202;SDS011;6666;51.626;7.530;2022-11-12T10:03:59;8.93;;;5.43;;
13202;SDS011;6666;51.626;7.530;2022-11-12T10:06:54;7.53;;;3.72;;
13202;SDS011;6666;51.626;7.530;2022-11-12T10:09:49;9.38;;;4.90;;
13202;SDS011;6666;51.626;7.530;2022-11-12T10:12:49;10.43;;;3.70;;
13202;SDS011;6666;51.626;7.530;2022-11-12T10:15:55;7.00;;;3.95;;
13202;SDS011;6666;51.626;7.530;2022-11-12T10:22:33;6.53;;;4.20;;
13202;SDS011;6666;51.626;7.530;2022-11-12T10:25:26;5.60;;;4.20;;
13202;SDS011;6666;51.626;7.530;2022-11-12T10:28:15;8.10;;;4.35;;
13202;SDS011;6666;51.626;7.530;2022-11-12T10:31:12;7.05;;;3.70;;
13202;SDS011;6666;51.626;7.530;2022-11-12T10:34:07;5.88;;;3.40;;
13202;SDS011;6666;51.626;7.530;2022-11-12T10:37:01;7.18;;;3.92;;
13202;SDS011;6666;51.626;7.530;2022-11-12T10:39:51;6.35;;;4.00;;
13202;SDS011;6666;51.626;7.530;2022-11-12T10:42:54;6.60;;;4.18;;
13202;SDS011;6666;51.626;7.530;2022-11-12T10:45:42;4.80;;;3.30;;
13202;SDS011;6666;51.626;7.530;2022-11-12T10:48:31;7.63;;;3.67;;
13202;SDS011;6666;51.626;7.530;2022-11-12T10:51:23;6.00;;;3.70;;
13202;SDS011;6666;51.626;7.530;2022-11-12T10:54:20;7.80;;;3.50;;
13202;SDS011;6666;51.626;7.530;2022-11-12T10:57:17;4.55;;;3.47;;
13202;SDS011;6666;51.626;7.530;2022-11-12T11:00:07;6.55;;;3.10;;
13202;SDS011;6666;51.626;7.530;2022-11-12T11:03:05;4.90;;;3.17;;
13202;SDS011;6666;51.626;7.530;2022-11-12T11:06:03;4.43;;;3.10;;
13202;SDS011;6666;51.626;7.530;2022-11-12T11:08:51;6.95;;;3.63;;
13202;SDS011;6666;51.626;7.530;2022-11-12T11:11:47;5.43;;;3.72;;
13202;SDS011;6666;51.626;7.530;2022-11-12T11:14:34;6.80;;;3.60;;
13202;SDS011;6666;51.626;7.530;2022-11-12T11:17:23;4.90;;;3.17;;
13202;SDS011;6666;51.626;7.530;2022-11-12T11:20:13;6.97;;;3.90;;
13202;SDS011;6666;51.626;7.530;2022-11-12T11:23:11;6.38;;;3.25;;
13202;SDS011;6666;51.626;7.530;2022-11-12T11:26:06;5.37;;;3.20;;
13202;SDS011;6666;51.626;7.530;2022-11-12T11:29:16;5.05;;;3.22;;
13202;SDS011;6666;51.626;7.530;2022-11-12T11:35:26;5.53;;;2.92;;
13202;SDS011;6666;51.626;7.530;2022-11-12T11:38:27;4.13;;;3.17;;
13202;SDS011;6666;51.626;7.530;2022-11-12T11:41:33;7.45;;;3.75;;
13202;SDS011;6666;51.626;7.530;2022-11-12T11:44:35;7.65;;;3.22;;
13202;SDS011;6666;51.626;7.530;2022-11-12T11:47:31;7.77;;;3.13;;
13202;SDS011;6666;51.626;7.530;2022-11-12T11:50:47;6.35;;;3.30;;
13202;SDS011;6666;51.626;7.530;2022-11-12T11:53:44;6.88;;;2.92;;
13202;SDS011;6666;51.626;7.530;2022-11-12T11:56:35;5.82;;;3.00;;
13202;SDS011;6666;51.626;7.530;2022-11-12T11:59:30;7.53;;;3.33;;
13202;SDS011;6666;51.626;7.530;2022-11-12T12:02:44;5.45;;;3.20;;
13202;SDS011;6666;51.626;7.530;2022-11-12T12:05:53;7.43;;;3.70;;
13202;SDS011;6666;51.626;7.530;2022-11-12T12:09:04;5.82;;;3.20;;
13202;SDS011;6666;51.626;7.530;2022-11-12T12:12:03;6.68;;;3.20;;
13202;SDS011;6666;51.626;7.530;2022-11-12T12:15:01;4.43;;;3.20;;
13202;SDS011;6666;51.626;7.530;2022-11-12T12:18:03;5.30;;;3.20;;
13202;SDS011;6666;51.626;7.530;2022-11-12T12:20:57;6.32;;;2.92;;
13202;SDS011;6666;51.626;7.530;2022-11-12T12:23:51;4.70;;;3.10;;
13202;SDS011;6666;51.626;7.530;2022-11-12T12:26:44;6.90;;;3.30;;
13202;SDS011;6666;51.626;7.530;2022-11-12T12:29:36;4.00;;;3.00;;
13202;SDS011;6666;51.626;7.530;2022-11-12T12:32:30;5.37;;;2.67;;
13202;SDS011;6666;51.626;7.530;2022-11-12T12:35:22;4.15;;;2.70;;
13202;SDS011;6666;51.626;7.530;2022-11-12T12:38:14;3.53;;;2.50;;
13202;SDS011;6666;51.626;7.530;2022-11-12T12:41:11;3.20;;;2.30;;
13202;SDS011;6666;51.626;7.530;2022-11-12T12:44:03;3.22;;;1.90;;
13202;SDS011;6666;51.626;7.530;2022-11-12T12:46:53;3.70;;;2.30;;
13202;SDS011;6666;51.626;7.530;2022-11-12T12:49:43;3.00;;;2.10;;
13202;SDS011;6666;51.626;7.530;2022-11-12T12:55:46;2.90;;;2.60;;
13202;SDS011;6666;51.626;7.530;2022-11-12T12:58:40;4.10;;;2.47;;
13202;SDS011;6666;51.626;7.530;2022-11-12T13:01:31;4.07;;;2.67;;
13202;SDS011;6666;51.626;7.530;2022-11-12T13:07:39;3.95;;;3.08;;
13202;SDS011;6666;51.626;7.530;2022-11-12T13:13:40;6.13;;;3.40;;
13202;SDS011;6666;51.626;7.530;2022-11-12T13:19:45;7.40;;;4.10;;
13202;SDS011;6666;51.626;7.530;2022-11-12T13:22:53;6.28;;;3.80;;
13202;SDS011;6666;51.626;7.530;2022-11-12T13:25:40;9.02;;;5.93;;
13202;SDS011;6666;51.626;7.530;2022-11-12T13:28:26;4.65;;;3.67;;
13202;SDS011;6666;51.626;7.530;2022-11-12T13:31:24;11.88;;;5.18;;
13202;SDS011;6666;51.626;7.530;2022-11-12T13:34:18;8.75;;;4.10;;
13202;SDS011;6666;51.626;7.530;2022-11-12T13:37:11;7.63;;;4.47;;
13202;SDS011;6666;51.626;7.530;2022-11-12T13:40:07;6.07;;;3.80;;
13202;SDS011;6666;51.626;7.530;2022-11-12T13:42:57;8.85;;;4.80;;
13202;SDS011;6666;51.626;7.530;2022-11-12T13:45:50;8.52;;;4.07;;
13202;SDS011;6666;51.626;7.530;2022-11-12T13:48:42;8.50;;;4.18;;
13202;SDS011;6666;51.626;7.530;2022-11-12T13:51:38;9.90;;;4.63;;
13202;SDS011;6666;51.626;7.530;2022-11-12T13:54:31;8.48;;;3.85;;
13202;SDS011;6666;51.626;7.530;2022-11-12T13:57:25;9.50;;;4.85;;
13202;SDS011;6666;51.626;7.530;2022-11-12T14:00:23;7.88;;;3.50;;
13202;SDS011;6666;51.626;7.530;2022-11-12T14:03:14;7.87;;;3.90;;
13202;SDS011;6666;51.626;7.530;2022-11-12T14:06:05;7.00;;;3.67;;
13202;SDS011;6666;51.626;7.530;2022-11-12T14:09:14;6.47;;;3.90;;
13202;SDS011;6666;51.626;7.530;2022-11-12T14:12:21;6.97;;;3.90;;
13202;SDS011;6666;51.626;7.530;2022-11-12T14:15:27;6.53;;;3.85;;
13202;SDS011;6666;51.626;7.530;2022-11-12T14:18:22;5.70;;;3.40;;
13202;SDS011;6666;51.626;7.530;2022-11-12T14:21:16;9.50;;;4.63;;
13202;SDS011;6666;51.626;7.530;2022-11-12T14:24:04;6.75;;;3.80;;
13202;SDS011;6666;51.626;7.530;2022-11-12T14:26:52;7.57;;;4.53;;
13202;SDS011;6666;51.626;7.530;2022-11-12T14:29:41;6.68;;;3.95;;
13202;SDS011;6666;51.626;7.530;2022-11-12T14:32:33;5.43;;;3.30;;
13202;SDS011;6666;51.626;7.530;2022-11-12T14:38:26;5.68;;;3.40;;
13202;SDS011;6666;51.626;7.530;2022-11-12T14:41:17;6.10;;;3.20;;
13202;SDS011;6666;51.626;7.530;2022-11-12T14:44:09;5.75;;;3.10;;
13202;SDS011;6666;51.626;7.530;2022-11-12T14:47:03;4.55;;;2.90;;
13202;SDS011;6666;51.626;7.530;2022-11-12T14:49:49;4.83;;;3.20;;
13202;SDS011;6666;51.626;7.530;2022-11-12T14:52:39;6.95;;;3.30;;
13202;SDS011;6666;51.626;7.530;2022-11-12T14:55:31;6.20;;;3.50;;
13202;SDS011;6666;51.626;7.530;2022-11-12T14:58:21;5.93;;;3.47;;
13202;SDS011;6666;51.626;7.530;2022-11-12T15:01:22;13.50;;;8.05;;
13202;SDS011;6666;51.626;7.530;2022-11-12T15:04:34;12.27;;;6.50;;
13202;SDS011;6666;51.626;7.530;2022-11-12T15:07:24;10.75;;;6.53;;
13202;SDS011;6666;51.626;7.530;2022-11-12T15:10:29;9.45;;;4.40;;
13202;SDS011;6666;51.626;7.530;2022-11-12T15:13:18;5.60;;;3.37;;
13202;SDS011;6666;51.626;7.530;2022-11-12T15:16:06;6.63;;;3.40;;
13202;SDS011;6666;51.626;7.530;2022-11-12T15:19:04;6.25;;;3.20;;
13202;SDS011;6666;51.626;7.530;2022-11-12T15:21:54;4.95;;;2.85;;
13202;SDS011;6666;51.626;7.530;2022-11-12T15:24:42;7.40;;;3.25;;
13202;SDS011;6666;51.626;7.530;2022-11-12T15:27:33;6.30;;;3.40;;
13202;SDS011;6666;51.626;7.530;2022-11-12T15:30:21;6.73;;;3.33;;
13202;SDS011;6666;51.626;7.530;2022-11-12T15:33:15;6.70;;;3.42;;
13202;SDS011;6666;51.626;7.530;2022-11-12T15:36:13;8.10;;;3.60;;
13202;SDS011;6666;51.626;7.530;2022-11-12T15:39:02;7.63;;;3.55;;
13202;SDS011;6666;51.626;7.530;2022-11-12T15:41:56;5.03;;;3.90;;
13202;SDS011;6666;51.626;7.530;2022-11-12T15:44:45;5.28;;;3.33;;
13202;SDS011;6666;51.626;7.530;2022-11-12T15:47:33;4.63;;;3.60;;
13202;SDS011;6666;51.626;7.530;2022-11-12T15:50:21;6.07;;;3.65;;
13202;SDS011;6666;51.626;7.530;2022-11-12T15:53:11;9.90;;;4.00;;
13202;SDS011;6666;51.626;7.530;2022-11-12T15:55:57;7.43;;;3.70;;
13202;SDS011;6666;51.626;7.530;2022-11-12T15:58:47;5.65;;;3.80;;
13202;SDS011;6666;51.626;7.530;2022-11-12T16:01:33;11.38;;;6.25;;
13202;SDS011;6666;51.626;7.530;2022-11-12T16:04:20;8.73;;;4.80;;
13202;SDS011;6666;51.626;7.530;2022-11-12T16:07:08;7.53;;;4.38;;
13202;SDS011;6666;51.626;7.530;2022-11-12T16:09:56;7.93;;;4.13;;
13202;SDS011;6666;51.626;7.530;2022-11-12T16:12:43;9.98;;;4.10;;
13202;SDS011;6666;51.626;7.530;2022-11-12T16:15:32;9.43;;;4.35;;
13202;SDS011;6666;51.626;7.530;2022-11-12T16:18:19;7.10;;;3.50;;
13202;SDS011;6666;51.626;7.530;2022-11-12T16:21:06;10.32;;;4.50;;
13202;SDS011;6666;51.626;7.530;2022-11-12T16:23:54;8.80;;;4.50;;
13202;SDS011;6666;51.626;7.530;2022-11-12T16:26:42;19.35;;;10.88;;
13202;SDS011;6666;51.626;7.530;2022-11-12T16:29:29;17.20;;;9.18;;
13202;SDS011;6666;51.626;7.530;2022-11-12T16:32:15;28.55;;;13.63;;
13202;SDS011;6666;51.626;7.530;2022-11-12T16:35:02;25.30;;;13.53;;
13202;SDS011;6666;51.626;7.530;2022-11-12T16:37:49;28.55;;;15.73;;
13202;SDS011;6666;51.626;7.530;2022-11-12T16:40:38;22.10;;;13.10;;
13202;SDS011;6666;51.626;7.530;2022-11-12T16:43:26;15.35;;;9.52;;
13202;SDS011;6666;51.626;7.530;2022-11-12T16:46:18;15.18;;;8.75;;
13202;SDS011;6666;51.626;7.530;2022-11-12T16:49:10;12.98;;;7.00;;
13202;SDS011;6666;51.626;7.530;2022-11-12T16:51:58;9.93;;;6.07;;
13202;SDS011;6666;51.626;7.530;2022-11-12T16:54:45;9.32;;;6.47;;
13202;SDS011;6666;51.626;7.530;2022-11-12T16:57:32;11.90;;;6.50;;
13202;SDS011;6666;51.626;7.530;2022-11-12T17:00:20;11.88;;;6.50;;
13202;SDS011;6666;51.626;7.530;2022-11-12T17:03:09;12.60;;;7.18;;
13202;SDS011;6666;51.626;7.530;2022-11-12T17:05:57;12.75;;;7.70;;
13202;SDS011;6666;51.626;7.530;2022-11-12T17:08:44;16.13;;;8.68;;
13202;SDS011;6666;51.626;7.530;2022-11-12T17:11:32;15.57;;;9.20;;
13202;SDS011;6666;51.626;7.530;2022-11-12T17:14:20;13.95;;;9.40;;
13202;SDS011;6666;51.626;7.530;2022-11-12T17:17:14;18.40;;;9.60;;
13202;SDS011;6666;51.626;7.530;2022-11-12T17:20:02;15.47;;;9.53;;
13202;SDS011;6666;51.626;7.530;2022-11-12T17:22:50;16.02;;;8.63;;
13202;SDS011;6666;51.626;7.530;2022-11-12T17:25:38;16.33;;;8.67;;
13202;SDS011;6666;51.626;7.530;2022-11-12T17:28:26;13.90;;;7.60;;
13202;SDS011;6666;51.626;7.530;2022-11-12T17:31:15;12.80;;;8.50;;
13202;SDS011;6666;51.626;7.530;2022-11-12T17:34:06;12.85;;;7.90;;
13202;SDS011;6666;51.626;7.530;2022-11-12T17:36:53;16.43;;;8.30;;
13202;SDS011;6666;51.626;7.530;2022-11-12T17:39:41;15.87;;;8.40;;
13202;SDS011;6666;51.626;7.530;2022-11-12T17:42:29;12.85;;;8.18;;